createdAt,value
2018-09-22T00:01:56.607Z,3.97
2018-09-22T00:04:25.105Z,3.60
2018-09-22T00:06:53.165Z,3.00
2018-09-22T00:09:27.771Z,1.80
2018-09-22T00:11:58.615Z,4.23
2018-09-22T00:14:28.861Z,3.27
2018-09-22T00:16:57.001Z,3.20
2018-09-22T00:19:32.219Z,4.83
2018-09-22T00:22:08.135Z,2.67
2018-09-22T00:24:36.195Z,3.00
2018-09-22T00:27:12.123Z,4.13
2018-09-22T00:29:40.118Z,4.33
2018-09-22T00:32:19.881Z,6.17
2018-09-22T00:34:49.910Z,8.47
2018-09-22T00:37:29.617Z,3.73
2018-09-22T00:40:04.449Z,4.83
2018-09-22T00:42:32.629Z,8.20
2018-09-22T00:45:03.587Z,7.60
2018-09-22T00:47:34.724Z,5.03
2018-09-22T00:50:02.811Z,10.03
2018-09-22T00:52:35.165Z,5.97
2018-09-22T00:55:15.230Z,6.90
2018-09-22T00:57:43.255Z,3.93
2018-09-22T01:00:14.114Z,5.50
2018-09-22T01:02:42.285Z,4.67
2018-09-22T01:05:16.730Z,4.83
2018-09-22T01:07:56.784Z,5.93
2018-09-22T01:10:27.075Z,5.60
2018-09-22T01:12:55.222Z,5.90
2018-09-22T01:15:33.489Z,2.97
2018-09-22T01:18:08.660Z,3.63
2018-09-22T01:20:39.857Z,5.03
2018-09-22T01:23:07.950Z,8.57
2018-09-22T01:25:42.398Z,4.20
2018-09-22T01:28:15.363Z,6.70
2018-09-22T01:30:43.615Z,7.47
2018-09-22T01:33:11.702Z,4.70
2018-09-22T01:35:51.624Z,3.20
2018-09-22T01:38:19.671Z,4.97
2018-09-22T01:40:50.645Z,8.37
2018-09-22T01:43:18.786Z,11.83
2018-09-22T01:45:52.898Z,5.53
2018-09-22T01:48:28.910Z,10.10
2018-09-22T01:50:56.932Z,4.50
2018-09-22T01:53:32.519Z,2.10
2018-09-22T01:56:06.868Z,2.83
2018-09-22T01:58:42.495Z,5.20
2018-09-22T02:01:15.551Z,6.33
2018-09-22T02:03:47.897Z,4.47
2018-09-22T02:06:18.025Z,6.47
2018-09-22T02:08:46.298Z,8.10
2018-09-22T02:11:20.968Z,5.00
2018-09-22T02:13:49.010Z,6.50
2018-09-22T02:16:27.079Z,8.33
2018-09-22T02:18:55.293Z,5.50
2018-09-22T02:21:26.200Z,4.23
2018-09-22T02:23:56.654Z,7.23
2018-09-22T02:26:27.080Z,5.10
2018-09-22T02:28:55.432Z,6.50
2018-09-22T02:31:23.510Z,7.23
2018-09-22T02:33:54.571Z,4.43
2018-09-22T02:36:22.883Z,5.27
2018-09-22T02:38:50.904Z,5.00
2018-09-22T02:41:24.155Z,7.43
2018-09-22T02:43:52.387Z,6.07
2018-09-22T02:46:20.443Z,6.00
2018-09-22T02:48:52.666Z,6.27
2018-09-22T02:51:23.871Z,7.73
2018-09-22T02:53:51.976Z,4.10
2018-09-22T02:56:23.023Z,7.67
2018-09-22T02:58:53.205Z,4.63
2018-09-22T03:01:21.278Z,7.93
2018-09-22T03:03:57.292Z,8.13
2018-09-22T03:06:25.606Z,7.70
2018-09-22T03:08:53.747Z,7.10
2018-09-22T03:11:33.902Z,5.17
2018-09-22T03:14:05.537Z,8.90
2018-09-22T03:16:37.692Z,6.60
2018-09-22T03:19:06.300Z,6.23
2018-09-22T03:21:44.767Z,7.00
2018-09-22T03:24:15.034Z,6.17
2018-09-22T03:26:46.182Z,7.57
2018-09-22T03:29:23.950Z,8.03
2018-09-22T03:31:52.117Z,5.07
2018-09-22T03:34:20.471Z,6.83
2018-09-22T03:36:54.874Z,5.83
2018-09-22T03:39:30.072Z,10.67
2018-09-22T03:42:02.563Z,6.57
2018-09-22T03:44:34.824Z,5.10
2018-09-22T03:49:48.014Z,6.87
2018-09-22T03:52:18.931Z,4.17
2018-09-22T03:54:47.048Z,6.13
2018-09-22T03:57:23.624Z,4.60
2018-09-22T03:59:55.908Z,8.27
2018-09-22T04:02:29.143Z,6.13
2018-09-22T04:05:02.680Z,6.60
2018-09-22T04:07:35.037Z,9.13
2018-09-22T04:10:14.771Z,4.77
2018-09-22T04:12:46.799Z,7.10
2018-09-22T04:15:19.952Z,6.37
2018-09-22T04:17:47.987Z,7.50
2018-09-22T04:20:22.298Z,6.40
2018-09-22T04:22:58.346Z,6.97
2018-09-22T04:25:26.445Z,6.77
2018-09-22T04:28:06.087Z,9.77
2018-09-22T04:30:34.138Z,11.90
2018-09-22T04:33:06.616Z,6.73
2018-09-22T04:35:36.725Z,5.80
2018-09-22T04:38:04.923Z,8.00
2018-09-22T04:40:35.736Z,7.93
2018-09-22T04:43:04.025Z,6.47
2018-09-22T04:45:32.086Z,9.23
2018-09-22T04:48:04.377Z,5.20
2018-09-22T04:50:52.434Z,8.77
2018-09-22T04:53:20.518Z,9.13
2018-09-22T04:55:55.147Z,8.40
2018-09-22T04:58:31.017Z,10.27
2018-09-22T05:01:01.116Z,6.63
2018-09-22T05:03:29.154Z,7.20
2018-09-22T05:06:02.285Z,6.23
2018-09-22T05:08:30.296Z,7.80
2018-09-22T05:11:06.494Z,9.33
2018-09-22T05:13:36.450Z,8.03
2018-09-22T05:16:04.614Z,6.53
2018-09-22T05:18:42.627Z,7.03
2018-09-22T05:21:11.060Z,7.60
2018-09-22T05:23:39.100Z,8.10
2018-09-22T05:26:10.266Z,6.47
2018-09-22T05:28:50.650Z,5.33
2018-09-22T05:31:20.846Z,7.07
2018-09-22T05:33:48.973Z,7.23
2018-09-22T05:36:24.684Z,10.17
2018-09-22T05:38:52.843Z,8.50
2018-09-22T05:41:23.684Z,6.10
2018-09-22T05:43:51.738Z,4.53
2018-09-22T05:46:22.918Z,9.63
2018-09-22T05:48:51.023Z,6.37
2018-09-22T05:51:23.390Z,6.80
2018-09-22T05:53:57.365Z,7.90
2018-09-22T05:56:25.827Z,7.57
2018-09-22T05:58:54.286Z,6.00
2018-09-22T06:01:22.491Z,7.73
2018-09-22T06:03:53.409Z,5.50
2018-09-22T06:06:21.656Z,9.23
2018-09-22T06:08:49.766Z,9.97
2018-09-22T06:11:22.800Z,5.23
2018-09-22T06:13:52.978Z,7.43
2018-09-22T06:16:21.044Z,8.17
2018-09-22T06:18:55.371Z,7.40
2018-09-22T06:21:36.028Z,10.87
2018-09-22T06:24:10.560Z,8.57
2018-09-22T06:26:43.455Z,6.87
2018-09-22T06:29:14.067Z,7.53
2018-09-22T06:31:44.368Z,8.33
2018-09-22T06:34:12.462Z,10.97
2018-09-22T06:36:42.736Z,6.53
2018-09-22T06:39:13.627Z,9.03
2018-09-22T06:41:41.793Z,10.07
2018-09-22T06:44:16.949Z,13.90
2018-09-22T06:46:48.014Z,6.70
2018-09-22T06:49:16.146Z,12.43
2018-09-22T06:51:49.367Z,12.67
2018-09-22T06:54:20.406Z,10.03
2018-09-22T06:56:53.341Z,9.47
2018-09-22T06:59:33.155Z,12.63
2018-09-22T07:02:09.892Z,9.53
2018-09-22T07:04:38.494Z,7.10
2018-09-22T07:07:06.520Z,6.40
2018-09-22T07:09:46.288Z,9.60
2018-09-22T07:12:14.345Z,12.10
2018-09-22T07:14:46.640Z,10.57
2018-09-22T07:17:17.974Z,10.77
2018-09-22T07:19:55.980Z,7.80
2018-09-22T07:22:29.634Z,6.97
2018-09-22T07:24:58.058Z,9.23
2018-09-22T07:27:26.278Z,10.73
2018-09-22T07:30:01.055Z,7.97
2018-09-22T07:32:29.170Z,11.23
2018-09-22T07:35:02.136Z,9.37
2018-09-22T07:37:30.357Z,8.00
2018-09-22T07:39:58.443Z,8.20
2018-09-22T07:42:29.639Z,8.07
2018-09-22T07:44:58.015Z,5.80
2018-09-22T07:47:26.066Z,16.90
2018-09-22T07:49:57.174Z,8.03
2018-09-22T07:52:35.516Z,6.87
2018-09-22T07:55:06.588Z,10.07
2018-09-22T07:57:41.557Z,5.60
2018-09-22T08:00:15.066Z,8.33
2018-09-22T08:02:46.251Z,7.17
2018-09-22T08:05:14.326Z,5.00
2018-09-22T08:07:49.626Z,6.53
2018-09-22T08:10:20.815Z,12.50
2018-09-22T08:12:50.730Z,10.90
2018-09-22T08:15:25.222Z,10.07
2018-09-22T08:17:58.520Z,9.07
2018-09-22T08:20:31.545Z,4.93
2018-09-22T08:23:01.771Z,5.50
2018-09-22T08:25:29.886Z,7.20
2018-09-22T08:28:02.246Z,8.20
2018-09-22T08:30:34.678Z,9.23
2018-09-22T08:33:05.700Z,10.33
2018-09-22T08:35:33.967Z,12.30
2018-09-22T08:38:02.028Z,8.73
2018-09-22T08:40:33.078Z,6.70
2018-09-22T08:43:03.879Z,7.73
2018-09-22T08:45:32.181Z,8.37
2018-09-22T08:48:00.357Z,6.80
2018-09-22T08:50:34.792Z,7.73
2018-09-22T08:53:07.742Z,6.60
2018-09-22T08:55:36.107Z,7.97
2018-09-22T08:58:04.293Z,7.77
2018-09-22T09:00:37.238Z,8.23
2018-09-22T09:03:07.514Z,8.30
2018-09-22T09:05:35.690Z,5.97
2018-09-22T09:08:08.138Z,5.97
2018-09-22T09:10:39.311Z,4.13
2018-09-22T09:13:17.523Z,9.20
2018-09-22T09:15:45.894Z,7.23
2018-09-22T09:18:14.071Z,7.17
2018-09-22T09:20:53.775Z,5.27
2018-09-22T09:23:21.895Z,11.17
2018-09-22T09:25:52.743Z,9.83
2018-09-22T09:28:20.869Z,6.73
2018-09-22T09:30:55.280Z,6.70
2018-09-22T09:33:26.256Z,10.10
2018-09-22T09:35:54.930Z,7.87
2018-09-22T09:38:23.078Z,9.23
2018-09-22T09:40:51.297Z,10.07
2018-09-22T09:43:23.610Z,7.13
2018-09-22T09:45:55.866Z,8.50
2018-09-22T09:48:26.885Z,11.23
2018-09-22T09:50:59.191Z,7.03
2018-09-22T09:53:32.839Z,7.43
2018-09-22T09:56:03.543Z,7.97
2018-09-22T09:58:31.715Z,10.10
2018-09-22T10:01:06.181Z,6.07
2018-09-22T10:03:39.443Z,10.97
2018-09-22T10:06:13.729Z,8.67
2018-09-22T10:08:43.895Z,9.50
2018-09-22T10:11:12.069Z,5.70
2018-09-22T10:13:42.886Z,7.60
2018-09-22T10:16:11.107Z,5.90
2018-09-22T10:18:39.145Z,4.13
2018-09-22T10:21:10.669Z,7.40
2018-09-22T10:23:42.560Z,12.50
2018-09-22T10:26:10.641Z,4.77
2018-09-22T10:28:44.695Z,7.57
2018-09-22T10:31:12.827Z,5.70
2018-09-22T10:33:46.622Z,6.47
2018-09-22T10:36:14.690Z,12.03
2018-09-22T10:38:42.848Z,6.77
2018-09-22T10:41:14.521Z,7.17
2018-09-22T10:43:48.000Z,5.17
2018-09-22T10:46:19.198Z,6.33
2018-09-22T10:48:51.115Z,5.43
2018-09-22T10:51:24.828Z,6.30
2018-09-22T10:53:53.043Z,5.80
2018-09-22T10:56:27.343Z,7.47
2018-09-22T10:59:07.479Z,9.50
2018-09-22T11:01:38.507Z,5.53
2018-09-22T11:04:10.785Z,4.80
2018-09-22T11:06:41.912Z,7.83
2018-09-22T11:09:12.976Z,6.47
2018-09-22T11:11:46.033Z,8.03
2018-09-22T11:14:19.087Z,5.87
2018-09-22T11:16:47.114Z,6.10
2018-09-22T11:19:22.371Z,8.40
2018-09-22T11:21:53.701Z,4.87
2018-09-22T11:24:24.058Z,7.30
2018-09-22T11:26:52.220Z,7.40
2018-09-22T11:29:25.288Z,7.13
2018-09-22T11:31:58.390Z,5.73
2018-09-22T11:34:26.494Z,8.17
2018-09-22T11:37:00.956Z,5.10
2018-09-22T11:39:32.328Z,10.73
2018-09-22T11:42:03.151Z,4.93
2018-09-22T11:44:31.290Z,8.70
2018-09-22T11:47:07.927Z,6.60
2018-09-22T11:49:41.309Z,6.67
2018-09-22T11:52:12.330Z,6.77
2018-09-22T11:54:42.727Z,6.27
2018-09-22T11:57:11.043Z,4.53
2018-09-22T11:59:39.106Z,6.63
2018-09-22T12:02:13.057Z,8.50
2018-09-22T12:04:41.193Z,3.43
2018-09-22T12:07:21.351Z,5.93
2018-09-22T12:09:49.614Z,7.73
2018-09-22T12:12:18.013Z,5.47
2018-09-22T12:14:46.098Z,6.80
2018-09-22T12:17:20.695Z,6.23
2018-09-22T12:19:53.005Z,4.67
2018-09-22T12:22:27.628Z,7.50
2018-09-22T12:24:55.757Z,5.80
2018-09-22T12:27:26.602Z,5.80
2018-09-22T12:29:54.681Z,6.33
2018-09-22T12:32:32.827Z,5.67
2018-09-22T12:35:01.302Z,6.17
2018-09-22T12:37:29.621Z,2.77
2018-09-22T12:39:57.707Z,6.27
2018-09-22T12:42:27.764Z,3.50
2018-09-22T12:44:55.804Z,8.70
2018-09-22T12:47:30.326Z,5.90
2018-09-22T12:50:03.313Z,6.43
2018-09-22T12:52:33.612Z,7.77
2018-09-22T12:55:01.695Z,5.53
2018-09-22T12:57:33.485Z,7.27
2018-09-22T13:00:01.559Z,5.20
2018-09-22T13:02:32.593Z,6.87
2018-09-22T13:05:00.647Z,6.57
2018-09-22T13:07:36.078Z,6.60
2018-09-22T13:10:10.737Z,5.73
2018-09-22T13:12:38.772Z,4.63
2018-09-22T13:15:18.655Z,6.03
2018-09-22T13:17:46.685Z,8.53
2018-09-22T13:20:19.032Z,5.57
2018-09-22T13:23:00.418Z,6.00
2018-09-22T13:25:31.493Z,5.73
2018-09-22T13:27:59.591Z,6.80
2018-09-22T13:30:31.954Z,5.33
2018-09-22T13:33:02.989Z,5.47
2018-09-22T13:35:31.056Z,7.57
2018-09-22T13:38:02.215Z,4.73
2018-09-22T13:40:30.362Z,4.33
2018-09-22T13:42:58.539Z,3.40
2018-09-22T13:45:32.829Z,6.80
2018-09-22T13:48:06.099Z,5.33
2018-09-22T13:50:37.163Z,5.20
2018-09-22T13:53:14.858Z,4.50
2018-09-22T13:55:43.026Z,4.27
2018-09-22T13:58:16.919Z,4.97
2018-09-22T14:00:45.115Z,3.37
2018-09-22T14:03:13.222Z,5.20
2018-09-22T14:05:44.079Z,4.20
2018-09-22T14:08:12.145Z,4.10
2018-09-22T14:10:43.363Z,6.53
2018-09-22T14:13:11.857Z,6.47
2018-09-22T14:15:40.119Z,6.67
2018-09-22T14:18:08.251Z,3.93
2018-09-22T14:20:43.602Z,1.17
2018-09-22T14:23:26.402Z,4.10
2018-09-22T14:25:54.527Z,2.70
2018-09-22T14:28:26.848Z,2.63
2018-09-22T14:30:58.048Z,8.93
2018-09-22T14:33:26.284Z,3.07
2018-09-22T14:35:54.458Z,1.50
2018-09-22T14:38:25.332Z,4.50
2018-09-22T14:40:53.416Z,5.87
2018-09-22T14:43:26.583Z,10.33
2018-09-22T14:45:56.715Z,6.57
2018-09-22T14:48:24.882Z,4.63
2018-09-22T14:50:58.030Z,8.23
2018-09-22T14:53:28.502Z,3.80
2018-09-22T14:55:58.792Z,2.90
2018-09-22T14:58:26.877Z,3.27
2018-09-22T15:01:01.266Z,2.43
2018-09-22T15:03:37.474Z,2.00
2018-09-22T15:06:17.423Z,2.10
2018-09-22T15:08:45.502Z,3.33
2018-09-22T15:11:18.678Z,2.33
2018-09-22T15:13:47.084Z,2.33
2018-09-22T15:16:15.134Z,1.40
2018-09-22T15:18:49.698Z,1.80
2018-09-22T15:21:22.172Z,0.87
2018-09-22T15:24:00.722Z,3.47
2018-09-22T15:26:28.926Z,2.00
2018-09-22T15:29:00.040Z,1.60
2018-09-22T15:31:34.357Z,4.73
2018-09-22T15:34:02.663Z,2.93
2018-09-22T15:36:30.711Z,1.13
2018-09-22T15:39:05.002Z,1.33
2018-09-22T15:41:33.236Z,3.43
2018-09-22T15:44:01.324Z,1.20
2018-09-22T15:46:35.770Z,5.83
2018-09-22T15:49:08.951Z,3.60
2018-09-22T15:51:41.246Z,3.27
2018-09-22T15:54:11.447Z,1.93
2018-09-22T15:56:39.451Z,5.80
2018-09-22T15:59:12.900Z,3.47
2018-09-22T16:01:45.088Z,3.63
2018-09-22T16:04:15.357Z,2.90
2018-09-22T16:06:43.499Z,2.43
2018-09-22T16:09:19.007Z,2.87
2018-09-22T16:11:54.404Z,5.20
2018-09-22T16:14:27.307Z,5.57
2018-09-22T16:16:55.401Z,3.47
2018-09-22T16:19:30.724Z,5.27
2018-09-22T16:22:05.541Z,4.03
2018-09-22T16:24:33.596Z,4.37
2018-09-22T16:27:08.969Z,3.53
2018-09-22T16:29:50.872Z,3.23
2018-09-22T16:32:18.987Z,3.73
2018-09-22T16:34:54.198Z,3.50
2018-09-22T16:37:34.034Z,3.97
2018-09-22T16:40:06.291Z,5.20
2018-09-22T16:42:43.924Z,3.80
2018-09-22T16:45:12.147Z,4.60
2018-09-22T16:47:49.380Z,3.30
2018-09-22T16:50:31.541Z,3.30
2018-09-22T16:52:59.838Z,5.60
2018-09-22T16:55:27.884Z,3.67
2018-09-22T16:58:02.445Z,3.27
2018-09-22T17:00:35.445Z,3.80
2018-09-22T17:03:05.716Z,4.47
2018-09-22T17:05:33.990Z,2.60
2018-09-22T17:08:07.460Z,3.77
2018-09-22T17:10:38.327Z,4.10
2018-09-22T17:13:06.844Z,3.80
2018-09-22T17:15:35.541Z,2.47
2018-09-22T17:20:48.808Z,3.63
2018-09-22T17:23:24.163Z,5.50
2018-09-22T17:26:04.159Z,5.93
2018-09-22T17:28:42.490Z,2.80
2018-09-22T17:31:12.586Z,5.00
2018-09-22T17:33:40.658Z,4.57
2018-09-22T17:36:14.054Z,7.33
2018-09-22T17:38:47.115Z,3.63
2018-09-22T17:41:15.353Z,4.80
2018-09-22T17:43:48.189Z,5.10
2018-09-22T17:46:16.245Z,7.20
2018-09-22T17:48:48.673Z,5.83
2018-09-22T17:51:21.646Z,6.23
2018-09-22T17:53:51.789Z,4.80
2018-09-22T17:56:26.257Z,4.40
2018-09-22T17:58:54.341Z,4.00
2018-09-22T18:01:25.854Z,4.17
2018-09-22T18:03:57.266Z,3.73
2018-09-22T18:06:28.567Z,4.93
2018-09-22T18:08:58.707Z,4.90
2018-09-22T18:11:26.715Z,3.60
2018-09-22T18:13:56.841Z,2.80
2018-09-22T18:16:24.969Z,2.50
2018-09-22T18:18:53.020Z,2.50
2018-09-22T18:21:24.182Z,2.50
2018-09-22T18:23:52.236Z,3.10
2018-09-22T18:26:27.566Z,3.77
2018-09-22T18:28:58.584Z,2.33
2018-09-22T18:31:26.704Z,2.77
2018-09-22T18:33:59.760Z,2.00
2018-09-22T18:36:27.956Z,3.10
2018-09-22T18:39:05.626Z,2.83
2018-09-22T18:41:34.229Z,3.90
2018-09-22T18:44:02.499Z,3.13
2018-09-22T18:46:30.623Z,2.17
2018-09-22T18:49:06.636Z,2.13
2018-09-22T18:51:34.936Z,2.93
2018-09-22T18:54:02.970Z,3.10
2018-09-22T18:56:36.140Z,2.17
2018-09-22T18:59:07.186Z,5.23
2018-09-22T19:01:37.879Z,2.67
2018-09-22T19:04:06.017Z,4.20
2018-09-22T19:06:36.953Z,2.97
2018-09-22T19:09:07.312Z,3.47
2018-09-22T19:11:35.453Z,4.80
2018-09-22T19:14:14.381Z,3.63
2018-09-22T19:16:46.230Z,4.07
2018-09-22T19:19:22.532Z,5.50
2018-09-22T19:21:57.249Z,5.57
2018-09-22T19:24:35.443Z,4.70
2018-09-22T19:27:12.618Z,5.80
2018-09-22T19:29:53.350Z,7.23
2018-09-22T19:32:29.210Z,8.37
2018-09-22T19:35:01.817Z,5.90
2018-09-22T19:37:35.829Z,4.90
2018-09-22T19:40:16.815Z,5.00
2018-09-22T19:42:56.180Z,5.47
2018-09-22T19:45:36.347Z,6.70
2018-09-22T19:48:07.922Z,5.50
2018-09-22T19:50:44.330Z,7.20
2018-09-22T19:53:12.713Z,7.47
2018-09-22T19:55:40.819Z,7.00
2018-09-22T19:58:11.685Z,5.50
2018-09-22T20:00:39.757Z,5.53
2018-09-22T20:03:14.177Z,8.13
2018-09-22T20:05:47.213Z,6.23
2018-09-22T20:08:15.510Z,5.83
2018-09-22T20:10:43.613Z,5.27
2018-09-22T20:13:16.705Z,6.33
2018-09-22T20:15:47.716Z,4.73
2018-09-22T20:18:18.965Z,4.73
2018-09-22T20:20:54.303Z,8.33
2018-09-22T20:23:26.731Z,4.97
2018-09-22T20:26:08.738Z,6.43
2018-09-22T20:28:37.218Z,6.00
2018-09-22T20:31:05.279Z,5.83
2018-09-22T20:33:36.099Z,4.97
2018-09-22T20:36:04.321Z,6.70
2018-09-22T20:38:38.715Z,9.10
2018-09-22T20:41:13.110Z,5.57
2018-09-22T20:43:44.190Z,5.13
2018-09-22T20:46:12.421Z,6.50
2018-09-22T20:48:40.498Z,7.87
2018-09-22T20:51:08.786Z,5.67
2018-09-22T20:53:38.964Z,7.03
2018-09-22T20:56:07.566Z,6.57
2018-09-22T20:58:35.627Z,6.07
2018-09-22T21:01:10.259Z,6.63
2018-09-22T21:03:41.522Z,6.40
2018-09-22T21:06:23.481Z,10.23
2018-09-22T21:08:53.777Z,7.10
2018-09-22T21:11:21.900Z,7.10
2018-09-22T21:14:01.707Z,6.67
2018-09-22T21:16:29.840Z,7.93
2018-09-22T21:19:04.183Z,8.13
2018-09-22T21:21:35.192Z,7.60
2018-09-22T21:24:03.398Z,7.60
2018-09-22T21:26:35.631Z,7.47
2018-09-22T21:29:06.538Z,8.63
2018-09-22T21:31:34.699Z,8.80
2018-09-22T21:34:07.633Z,7.67
2018-09-22T21:36:35.933Z,10.37
2018-09-22T21:39:05.711Z,10.93
2018-09-22T21:41:36.832Z,8.40
2018-09-22T21:44:05.137Z,7.93
2018-09-22T21:46:37.264Z,7.47
2018-09-22T21:49:07.678Z,7.80
2018-09-22T21:51:38.675Z,6.90
2018-09-22T21:54:11.086Z,7.90
2018-09-22T21:56:44.890Z,8.13
2018-09-22T21:59:13.202Z,9.23
2018-09-22T22:01:41.722Z,9.43
2018-09-22T22:04:18.647Z,9.67
2018-09-22T22:06:46.786Z,9.33
2018-09-22T22:09:15.242Z,7.83
2018-09-22T22:11:43.333Z,9.67
2018-09-22T22:14:14.642Z,8.73
2018-09-22T22:16:46.896Z,8.67
2018-09-22T22:19:17.950Z,8.33
2018-09-22T22:21:50.391Z,8.60
2018-09-22T22:24:21.170Z,10.83
2018-09-22T22:26:49.346Z,9.80
2018-09-22T22:29:21.692Z,8.53
2018-09-22T22:31:56.170Z,9.60
2018-09-22T22:34:24.219Z,10.87
2018-09-22T22:36:54.613Z,11.27
2018-09-22T22:39:22.935Z,9.60
2018-09-22T22:41:50.996Z,10.53
2018-09-22T22:44:21.040Z,12.87
2018-09-22T22:46:49.249Z,10.63
2018-09-22T22:49:26.845Z,10.43
2018-09-22T22:51:54.951Z,8.80
2018-09-22T22:54:30.960Z,9.30
2018-09-22T22:56:59.393Z,10.47
2018-09-22T22:59:27.457Z,10.90
2018-09-22T23:02:02.818Z,12.37
2018-09-22T23:04:37.190Z,9.43
2018-09-22T23:07:09.826Z,9.77
2018-09-22T23:09:49.675Z,9.20
2018-09-22T23:12:17.833Z,11.50
2018-09-22T23:14:51.021Z,9.50
2018-09-22T23:17:24.212Z,9.53
2018-09-22T23:19:55.222Z,12.23
2018-09-22T23:22:33.265Z,8.97
2018-09-22T23:25:05.322Z,10.37
2018-09-22T23:27:33.548Z,11.90
2018-09-22T23:30:07.985Z,10.77
2018-09-22T23:32:40.597Z,10.20
2018-09-22T23:35:08.678Z,12.47
2018-09-22T23:37:48.674Z,11.40
2018-09-22T23:40:16.753Z,14.67
2018-09-22T23:42:49.736Z,11.67
2018-09-22T23:45:17.806Z,16.07
2018-09-22T23:47:55.403Z,12.83
2018-09-22T23:50:23.563Z,13.87
2018-09-22T23:52:58.044Z,11.87
2018-09-22T23:55:29.014Z,12.20
2018-09-22T23:57:57.287Z,13.80
